Sadiqabad Weather



Sadiqabad's Current Weather

Temprature 15.72o clear sky

clear sky

Rain: 0 %

Min Temprature15.72o
Max Temprature15.72o
Humidity26
Wind Speed2.1 m/h
Sun Rise07:10:54
Sun Set17:51:22
Current Time: 23-Jan-2021 18:12:58
Lat/Lon: 28.3062, 70.1307




Sadiqabad's Geo Location



Sadiqabad's Weather Forecast

Time Overall Temp Min Temp Max Temp Humidity Wind Speed Rain
23-Jan-2021 (Sat)
20:00:00 clear sky 19.290 14.660 19.290 19 4.11 m/h 0 %
23:00:00 clear sky 16.330 14.300 16.330 23 4.6 m/h 0 %
24-Jan-2021 (Sun)
02:00:00 clear sky 11.290 10.440 11.290 39 4.47 m/h 0 %
05:00:00 clear sky 9.730 9.620 9.730 48 3.85 m/h 0 %
08:00:00 clear sky 9.680 9.680 9.680 47 3.88 m/h 0 %
11:00:00 clear sky 19.400 19.400 19.400 23 3.52 m/h 0 %
14:00:00 clear sky 22.990 22.990 22.990 17 2.1 m/h 0 %
17:00:00 clear sky 22.240 22.240 22.240 17 1.36 m/h 0 %
20:00:00 clear sky 10.830 10.830 10.830 40 1.26 m/h 0 %
23:00:00 clear sky 10.560 10.560 10.560 37 1.93 m/h 0 %
25-Jan-2021 (Mon)
02:00:00 clear sky 10.680 10.680 10.680 36 3.22 m/h 0 %
05:00:00 clear sky 8.250 8.250 8.250 43 2.42 m/h 0 %
08:00:00 clear sky 10.530 10.530 10.530 37 1.96 m/h 0 %
11:00:00 clear sky 20.380 20.380 20.380 19 1.6 m/h 0 %
14:00:00 clear sky 24.010 24.010 24.010 15 0.72 m/h 0 %
17:00:00 clear sky 22.320 22.320 22.320 16 0.78 m/h 0 %
20:00:00 clear sky 10.940 10.940 10.940 35 1.33 m/h 0 %
23:00:00 clear sky 8.940 8.940 8.940 50 0.75 m/h 0 %
26-Jan-2021 (Tue)
02:00:00 clear sky 7.990 7.990 7.990 53 0.47 m/h 0 %
05:00:00 clear sky 7.210 7.210 7.210 56 0.82 m/h 0 %
08:00:00 clear sky 10.780 10.780 10.780 35 0.92 m/h 0 %
11:00:00 clear sky 21.880 21.880 21.880 17 0.95 m/h 0 %
14:00:00 clear sky 24.650 24.650 24.650 14 1.53 m/h 0 %
17:00:00 clear sky 23.470 23.470 23.470 15 1.13 m/h 0 %
20:00:00 clear sky 11.320 11.320 11.320 38 1.33 m/h 0 %
23:00:00 clear sky 10.310 10.310 10.310 35 1.56 m/h 0 %
27-Jan-2021 (Wed)
02:00:00 clear sky 9.860 9.860 9.860 39 1.66 m/h 0 %
05:00:00 clear sky 9.950 9.950 9.950 35 3.04 m/h 0 %
08:00:00 clear sky 11.460 11.460 11.460 31 2.73 m/h 0 %
11:00:00 clear sky 21.120 21.120 21.120 17 2.3 m/h 0 %
14:00:00 clear sky 24.740 24.740 24.740 13 0.94 m/h 0 %
17:00:00 clear sky 22.960 22.960 22.960 15 0.95 m/h 0 %
20:00:00 clear sky 12.430 12.430 12.430 36 1.76 m/h 0 %
23:00:00 clear sky 10.160 10.160 10.160 43 1.5 m/h 0 %
28-Jan-2021 (Thu)
02:00:00 clear sky 9.020 9.020 9.020 48 1.27 m/h 0 %
05:00:00 clear sky 7.890 7.890 7.890 53 1.4 m/h 0 %
08:00:00 clear sky 11.780 11.780 11.780 33 1.77 m/h 0 %
11:00:00 clear sky 22.210 22.210 22.210 17 1.13 m/h 0 %
14:00:00 clear sky 25.310 25.310 25.310 13 1.06 m/h 0 %
17:00:00 clear sky 23.950 23.950 23.950 15 1.11 m/h 0 %


Sadiqabad's Tourist Spots

Historical Places in Sadiqabad

Famous Cities (60)